Upstream stations:
Downstream station:
SHEF ID: WCOM7 Spring R A - Waco MO
STATION TYPE: Stream Gauge
Regulating: Stage = 19.00, Flow = 17743
PRECIP STAGE RIV-FLOW BAT-LOAD
in ft cfs volt
Ccp-Rev Ccp-Rev Ccp-Rev Ccp-Rev
(US/Central)
03/31 00:00 0.00 3.17 965 12.60
03/31 01:00 0.00 3.16 959 12.60
03/31 02:00 0.00 3.16 959 12.60
03/31 03:00 0.00 3.17 965 12.60
03/31 04:00 0.00 3.20 985 12.60
03/31 05:00 0.00 3.20 985 12.60
03/31 06:00 0.00 3.23 1005 12.60
03/31 07:00 0.00 3.19 978 12.60
03/31 08:00 0.00 3.24 1012 12.60
03/31 09:00 0.00 3.24 1012 12.65
03/31 10:00 0.00 3.24 1012 13.36
03/31 11:00 0.00 3.25 1019 13.59
03/31 12:00 0.01 3.29 1046 14.18
03/31 13:00 0.00 3.31 1059 14.12
03/31 14:00 0.00 3.35 1087 14.59
03/31 15:00 0.00 3.38 1108 14.00
03/31 16:00 0.00 3.43 1143 14.00
03/31 17:00 0.00 3.46 1165 13.88
03/31 18:00 0.00 3.48 1179 13.88
03/31 19:00 0.00 3.52 1208 14.00
03/31 20:00 0.00 3.53 1215 13.59
03/31 21:00 0.00 3.52 1208 13.30
03/31 22:00 0.00 3.55 1230 13.07
03/31 23:00 0.00 3.53 1215 12.89